Time;durP1;ratioP1;P1;durP2;ratioP2;P2;SDS_P1;SDS_P2;PMS_P1;PMS_P2;Temp;Humidity;BMP_temperature;BMP_pressure;BME280_temperature;BME280_humidity;BME280_pressure;Samples;Min_cycle;Max_cycle;Signal;HPM_P1;HPM_P2
2021/09/20 00:00:43;;;;;;;4.90;1.55;;;13.10;99.90;;;13.02;100.00;101699.16;4152762;28;20580;-74
2021/09/20 00:02:45;;;;;;;8.88;2.20;;;13.10;99.90;;;13.29;100.00;101701.81;4152677;28;20101;-74
2021/09/20 00:04:46;;;;;;;7.97;2.25;;;13.20;99.90;;;13.19;100.00;101701.06;4153754;28;20025;-75
2021/09/20 00:06:47;;;;;;;9.57;2.85;;;13.30;99.90;;;13.21;100.00;101704.38;4152522;28;20026;-74
2021/09/20 00:08:49;;;;;;;10.68;2.13;;;13.20;99.90;;;13.18;100.00;101709.97;4152476;28;20088;-74
2021/09/20 00:10:51;;;;;;;8.43;1.80;;;13.30;99.90;;;13.15;100.00;101710.28;4153829;28;20021;-74
2021/09/20 00:12:52;;;;;;;7.75;1.67;;;13.30;99.90;;;13.09;100.00;101704.72;4152491;28;20134;-75
2021/09/20 00:14:52;;;;;;;7.80;2.28;;;13.30;99.90;;;13.27;100.00;101703.78;4153559;28;20070;-74
2021/09/20 00:16:53;;;;;;;12.23;2.28;;;13.30;99.90;;;13.29;100.00;101701.81;4152412;28;20038;-74
2021/09/20 00:18:54;;;;;;;4.18;1.60;;;13.30;99.90;;;13.16;100.00;101695.22;4152426;28;20026;-74
2021/09/20 00:20:55;;;;;;;10.85;1.60;;;13.30;99.90;;;13.17;100.00;101703.00;4152445;28;20053;-75
2021/09/20 00:22:56;;;;;;;8.52;2.47;;;13.30;99.90;;;13.30;100.00;101700.84;4152270;28;20080;-74
2021/09/20 00:24:58;;;;;;;6.35;1.60;;;13.30;99.90;;;13.32;100.00;101700.66;4152118;28;20026;-74
2021/09/20 00:26:58;;;;;;;6.07;1.50;;;13.40;99.90;;;13.28;100.00;101708.13;4152265;28;20026;-74
2021/09/20 00:28:59;;;;;;;8.48;1.92;;;13.30;99.90;;;13.18;100.00;101704.69;4152275;28;20548;-74
2021/09/20 00:31:00;;;;;;;6.75;1.98;;;13.30;99.90;;;13.18;100.00;101696.72;4152205;28;20421;-74
2021/09/20 00:33:01;;;;;;;8.75;1.75;;;13.30;99.90;;;13.04;100.00;101704.31;4152349;28;20602;-74
2021/09/20 00:35:05;;;;;;;4.55;2.28;;;13.30;99.90;;;12.90;100.00;101704.84;4153407;28;20030;-75
2021/09/20 00:37:06;;;;;;;10.75;1.98;;;13.20;99.90;;;13.05;100.00;101701.50;4152228;28;20037;-75
2021/09/20 00:39:07;;;;;;;11.23;2.13;;;13.20;99.90;;;13.06;100.00;101697.06;4151799;28;20033;-75
2021/09/20 00:41:08;;;;;;;7.60;1.73;;;13.20;99.90;;;13.01;100.00;101692.22;4156773;28;20571;-75
2021/09/20 00:43:09;;;;;;;8.80;1.73;;;13.20;99.90;;;12.93;100.00;101694.75;4160444;28;20030;-75
2021/09/20 00:45:10;;;;;;;8.70;1.98;;;13.20;99.90;;;12.96;100.00;101699.75;4153396;28;20469;-74
2021/09/20 00:47:11;;;;;;;8.23;1.70;;;13.20;99.90;;;12.95;100.00;101694.63;4151831;28;20053;-75
2021/09/20 00:49:12;;;;;;;9.43;1.80;;;13.20;99.90;;;13.02;100.00;101696.50;4153257;28;20034;-75
2021/09/20 00:51:13;;;;;;;5.85;1.83;;;13.20;99.90;;;12.93;100.00;101701.88;4152031;28;20449;-75
2021/09/20 00:53:14;;;;;;;15.10;2.35;;;13.20;99.90;;;12.82;100.00;101708.19;4151743;28;20399;-75
2021/09/20 00:55:16;;;;;;;7.15;2.05;;;13.10;99.90;;;12.88;100.00;101702.31;4153009;28;20160;-75
2021/09/20 00:57:19;;;;;;;7.82;1.45;;;13.10;99.90;;;12.81;100.00;101695.13;4153146;28;20044;-75
2021/09/20 00:59:20;;;;;;;10.45;2.13;;;13.00;99.90;;;12.98;100.00;101716.34;4153101;28;20032;-75
2021/09/20 01:01:22;;;;;;;8.70;2.08;;;13.10;99.90;;;12.85;100.00;101709.72;4135533;28;20061;-75
2021/09/20 01:03:23;;;;;;;9.30;2.45;;;13.10;99.90;;;12.94;100.00;101707.03;4151777;28;20049;-75
2021/09/20 01:05:24;;;;;;;13.10;2.60;;;13.10;99.90;;;13.06;100.00;101703.19;4152981;28;20030;-74
2021/09/20 01:07:25;;;;;;;5.25;1.80;;;13.10;99.90;;;13.02;100.00;101708.94;4151780;28;20485;-74
2021/09/20 01:09:27;;;;;;;8.00;1.52;;;13.10;99.90;;;13.10;100.00;101712.56;4151546;28;20065;-74
2021/09/20 01:11:28;;;;;;;13.80;2.30;;;13.20;99.90;;;13.06;100.00;101705.00;4151758;28;20113;-74
2021/09/20 01:13:29;;;;;;;9.63;2.38;;;13.20;99.90;;;13.09;100.00;101702.94;4151442;28;20058;-74
2021/09/20 01:15:31;;;;;;;10.13;1.77;;;13.20;99.90;;;12.97;100.00;101704.06;4151691;28;20125;-74
2021/09/20 01:17:32;;;;;;;7.15;2.20;;;13.20;99.90;;;12.91;100.00;101702.03;4152890;28;20064;-75
2021/09/20 01:19:33;;;;;;;7.72;1.80;;;13.20;99.90;;;12.85;100.00;101705.25;4152798;28;20108;-74
2021/09/20 01:21:35;;;;;;;7.45;2.00;;;13.10;99.90;;;12.80;100.00;101710.16;4148117;28;20524;-74
2021/09/20 01:23:36;;;;;;;10.40;2.15;;;13.10;99.90;;;12.81;100.00;101709.19;4151421;28;20025;-74
2021/09/20 01:25:37;;;;;;;9.48;2.00;;;13.00;99.90;;;12.69;100.00;101705.06;4152682;28;20092;-74
2021/09/20 01:27:39;;;;;;;7.20;1.60;;;13.00;99.90;;;12.90;100.00;101702.19;4152585;28;20022;-74
2021/09/20 01:29:40;;;;;;;10.55;1.50;;;13.00;99.90;;;12.90;100.00;101704.84;4152750;28;20115;-75
2021/09/20 01:31:41;;;;;;;20.60;3.72;;;13.00;99.90;;;12.94;100.00;101700.88;4151500;28;20022;-74
2021/09/20 01:33:42;;;;;;;6.53;1.33;;;13.00;99.90;;;13.01;100.00;101700.16;4151331;28;20084;-74
2021/09/20 01:35:43;;;;;;;7.82;2.10;;;13.10;99.90;;;13.09;100.00;101702.09;4151271;28;20513;-74
2021/09/20 01:37:45;;;;;;;7.40;1.67;;;13.10;99.90;;;13.10;100.00;101704.59;4151398;28;20037;-74
2021/09/20 01:39:46;;;;;;;10.98;2.65;;;13.10;99.90;;;13.10;100.00;101698.47;4152344;28;20022;-74
2021/09/20 01:41:49;;;;;;;8.75;2.95;;;13.20;99.90;;;13.03;100.00;101702.66;4162486;28;20460;-75
2021/09/20 01:43:50;;;;;;;8.50;1.35;;;13.20;99.90;;;13.12;100.00;101704.44;4154654;28;20026;-75
2021/09/20 01:45:51;;;;;;;8.80;1.60;;;13.20;99.90;;;13.02;100.00;101715.06;4152262;28;20112;-75
2021/09/20 01:47:54;;;;;;;11.95;1.73;;;13.20;99.90;;;13.06;100.00;101705.00;4151292;28;20192;-74
2021/09/20 01:49:55;;;;;;;11.75;2.03;;;13.10;99.90;;;13.05;100.00;101711.31;4151249;28;20022;-74
2021/09/20 01:51:57;;;;;;;8.50;1.98;;;13.10;99.90;;;12.98;100.00;101707.56;4151219;28;20517;-74
2021/09/20 01:53:57;;;;;;;9.60;2.45;;;13.20;99.90;;;12.88;100.00;101701.47;4151155;28;20478;-74
2021/09/20 01:55:58;;;;;;;7.18;1.80;;;13.10;99.90;;;12.91;100.00;101707.31;4151278;28;20034;-74
2021/09/20 01:57:59;;;;;;;6.15;1.80;;;13.10;99.90;;;12.72;100.00;101708.25;4151291;28;20034;-74
2021/09/20 02:00:00;;;;;;;9.05;2.28;;;13.00;99.90;;;12.60;100.00;101714.69;4152309;28;20123;-74
2021/09/20 02:02:01;;;;;;;7.50;2.35;;;12.90;99.90;;;12.83;100.00;101709.88;4134691;28;20030;-75
2021/09/20 02:04:03;;;;;;;12.25;2.42;;;12.90;99.90;;;12.86;100.00;101714.88;4151216;28;20030;-75
2021/09/20 02:06:04;;;;;;;8.10;1.92;;;13.00;99.90;;;12.86;100.00;101704.28;4150873;28;20026;-74
2021/09/20 02:08:05;;;;;;;12.57;2.17;;;13.00;99.90;;;12.90;100.00;101700.38;4150984;28;20088;-74
2021/09/20 02:10:09;;;;;;;6.70;1.70;;;13.00;99.90;;;12.83;100.00;101709.88;4150933;28;20022;-74
2021/09/20 02:12:11;;;;;;;9.82;1.67;;;13.00;99.90;;;12.91;100.00;101712.63;4151016;28;20093;-74
2021/09/20 02:14:12;;;;;;;7.78;2.45;;;13.00;99.90;;;12.84;100.00;101714.19;4151043;28;20089;-75
2021/09/20 02:16:13;;;;;;;10.98;2.45;;;13.00;99.90;;;12.89;100.00;101714.59;4152124;28;20037;-75
2021/09/20 02:18:14;;;;;;;8.70;1.67;;;13.00;99.90;;;12.86;100.00;101714.88;4150957;28;20034;-74
2021/09/20 02:20:15;;;;;;;11.52;2.38;;;13.00;99.90;;;12.82;100.00;101702.91;4150985;28;20092;-75
2021/09/20 02:22:16;;;;;;;6.57;1.50;;;13.00;99.90;;;12.73;100.00;101712.56;4150938;28;20026;-74
2021/09/20 02:24:17;;;;;;;5.43;2.08;;;13.00;99.90;;;12.69;100.00;101711.19;4150657;28;20064;-74
2021/09/20 02:26:18;;;;;;;8.32;1.60;;;12.90;99.90;;;12.71;100.00;101709.25;4153156;28;20038;-74
2021/09/20 02:28:19;;;;;;;9.18;1.77;;;12.90;99.90;;;12.79;100.00;101711.13;4154088;28;20503;-75
2021/09/20 02:30:20;;;;;;;8.50;2.30;;;12.90;99.90;;;12.64;100.00;101709.94;4154267;28;20030;-75
2021/09/20 02:32:21;;;;;;;9.88;2.17;;;12.90;99.90;;;12.63;100.00;101700.38;4154181;28;20510;-74
2021/09/20 02:34:21;;;;;;;10.18;2.17;;;12.90;99.90;;;12.72;100.00;101707.44;4154021;28;20030;-74
2021/09/20 02:36:23;;;;;;;5.28;1.63;;;12.90;99.90;;;12.81;100.00;101705.72;4150606;28;20502;-74
2021/09/20 02:38:24;;;;;;;5.47;2.25;;;12.90;99.90;;;12.85;100.00;101699.97;4153841;28;20077;-74
2021/09/20 02:40:25;;;;;;;11.23;2.30;;;12.90;99.90;;;12.76;100.00;101698.19;4154057;28;20121;-74
2021/09/20 02:42:26;;;;;;;6.40;2.15;;;13.00;99.90;;;12.73;100.00;101704.63;4167157;28;20029;-74
2021/09/20 02:44:27;;;;;;;9.70;1.52;;;12.90;99.90;;;12.76;100.00;101703.50;4155466;28;20084;-74
2021/09/20 02:46:28;;;;;;;13.73;2.45;;;13.00;99.90;;;12.70;100.00;101704.91;4154967;28;20046;-74
2021/09/20 02:48:30;;;;;;;7.55;1.50;;;13.00;99.90;;;12.73;100.00;101698.47;4153925;28;20030;-74
2021/09/20 02:50:31;;;;;;;9.88;1.98;;;12.90;99.90;;;12.71;100.00;101705.75;4153769;28;20028;-75
2021/09/20 02:52:32;;;;;;;12.45;1.60;;;13.00;99.90;;;12.66;100.00;101706.16;4142669;28;20132;-74
2021/09/20 02:54:33;;;;;;;8.23;1.80;;;12.90;99.90;;;12.74;100.00;101700.16;4145189;28;20107;-74
2021/09/20 02:56:34;;;;;;;4.70;1.33;;;12.90;99.90;;;12.69;100.00;101697.94;4155001;28;20076;-74
2021/09/20 02:58:35;;;;;;;8.13;1.77;;;12.90;99.90;;;12.73;100.00;101706.44;4154864;28;20034;-74
2021/09/20 03:00:36;;;;;;;12.52;2.78;;;12.90;99.90;;;12.86;100.00;101714.88;4153749;28;20022;-74
2021/09/20 03:02:38;;;;;;;8.27;2.40;;;12.90;99.90;;;12.74;100.00;101705.47;4153755;28;20030;-74
2021/09/20 03:04:39;;;;;;;8.18;1.67;;;13.00;99.90;;;12.79;100.00;101721.72;4153526;28;20108;-74
2021/09/20 03:06:40;;;;;;;10.50;2.58;;;12.90;99.90;;;12.64;100.00;101718.72;4153549;28;20513;-75
2021/09/20 03:08:41;;;;;;;7.32;1.77;;;13.00;99.90;;;12.54;100.00;101712.66;4153554;28;20116;-74
2021/09/20 03:10:42;;;;;;;9.98;2.40;;;12.90;99.90;;;12.57;100.00;101717.63;4153770;28;20034;-74
2021/09/20 03:12:43;;;;;;;8.82;2.42;;;12.90;99.90;;;12.55;100.00;101718.75;4154871;28;20030;-74
2021/09/20 03:14:44;;;;;;;8.68;1.55;;;12.80;99.90;;;12.62;100.00;101722.50;4154643;28;20061;-74
2021/09/20 03:16:45;;;;;;;5.53;1.95;;;12.80;99.90;;;12.67;100.00;101722.91;4153637;28;20058;-74
2021/09/20 03:18:46;;;;;;;5.22;1.20;;;12.80;99.90;;;12.63;100.00;101721.53;4154709;28;20022;-74
2021/09/20 03:20:47;;;;;;;9.43;2.75;;;12.80;99.90;;;12.71;100.00;101726.94;4153437;28;20037;-74
2021/09/20 03:22:48;;;;;;;10.30;1.73;;;12.80;99.90;;;12.55;100.00;101726.69;4153211;28;20018;-74
2021/09/20 03:24:48;;;;;;;13.02;2.70;;;12.90;99.90;;;12.57;100.00;101724.75;4153208;28;20398;-74
2021/09/20 03:26:50;;;;;;;9.80;2.38;;;12.80;99.90;;;12.71;100.00;101724.28;4153422;28;20026;-74
2021/09/20 03:28:51;;;;;;;5.95;1.45;;;12.80;99.90;;;12.66;100.00;101734.47;4163963;28;20424;-74
2021/09/20 03:30:52;;;;;;;7.88;1.90;;;12.80;99.90;;;12.57;100.00;101727.41;4156292;28;20033;-74
2021/09/20 03:32:52;;;;;;;7.55;1.75;;;12.80;99.90;;;12.48;100.00;101728.28;4170890;28;20044;-74
2021/09/20 03:34:53;;;;;;;7.68;1.70;;;12.80;99.90;;;12.36;100.00;101724.13;4169636;28;20459;-74
2021/09/20 03:36:54;;;;;;;7.85;1.88;;;12.70;99.90;;;12.50;100.00;101731.59;4169400;28;20041;-74
2021/09/20 03:38:55;;;;;;;7.70;1.52;;;12.70;99.90;;;12.59;100.00;101728.09;4169313;28;20021;-74
2021/09/20 03:40:56;;;;;;;10.48;2.42;;;12.70;99.90;;;12.66;100.00;101730.00;4169786;28;20421;-74
2021/09/20 03:42:57;;;;;;;10.30;1.98;;;12.80;99.90;;;12.53;100.00;101728.66;4163097;28;20085;-74
2021/09/20 03:44:58;;;;;;;8.68;3.13;;;12.70;99.90;;;12.49;100.00;101732.56;4162726;28;20052;-74
2021/09/20 03:46:59;;;;;;;9.10;2.30;;;12.70;99.90;;;12.58;100.00;101726.41;4155887;28;20045;-74
2021/09/20 03:49:02;;;;;;;6.97;1.33;;;12.80;99.90;;;12.41;100.00;101724.53;4152996;28;20379;-75
2021/09/20 03:51:05;;;;;;;8.32;1.80;;;12.80;99.90;;;12.43;100.00;101741.09;4154174;28;20022;-74
2021/09/20 03:53:06;;;;;;;10.52;2.40;;;12.70;99.90;;;12.32;100.00;101735.97;4152682;28;20112;-74
2021/09/20 03:55:07;;;;;;;7.55;1.50;;;12.70;99.90;;;12.27;100.00;101727.63;4153929;28;20029;-74
2021/09/20 03:57:08;;;;;;;9.32;1.98;;;12.60;99.90;;;12.19;100.00;101731.81;4152846;28;20057;-74
2021/09/20 03:59:10;;;;;;;7.03;1.80;;;12.60;99.90;;;12.19;100.00;101742.41;4153964;28;20049;-74
2021/09/20 04:01:11;;;;;;;9.73;2.20;;;12.60;99.90;;;12.16;100.00;101742.69;4154251;28;20445;-74
2021/09/20 04:03:12;;;;;;;12.70;2.05;;;12.50;99.90;;;12.24;100.00;101738.50;4152783;28;20033;-74
2021/09/20 04:05:13;;;;;;;8.80;1.58;;;12.50;99.90;;;12.33;100.00;101745.59;4152593;28;20145;-74
2021/09/20 04:07:14;;;;;;;6.63;1.00;;;12.50;99.90;;;12.23;100.00;101737.66;4152739;28;20030;-74
2021/09/20 04:09:15;;;;;;;8.48;1.85;;;12.50;99.90;;;12.38;100.00;101743.34;4153834;28;20053;-74
2021/09/20 04:11:16;;;;;;;7.82;1.48;;;12.60;99.90;;;12.34;100.00;101742.78;4152705;28;20022;-74
2021/09/20 04:13:16;;;;;;;19.00;2.58;;;12.60;99.90;;;12.43;100.00;101749.03;4152446;28;20026;-75
2021/09/20 04:15:17;;;;;;;8.48;2.30;;;12.60;99.90;;;12.51;100.00;101739.41;4152804;28;20030;-75
2021/09/20 04:17:18;;;;;;;6.60;1.60;;;12.60;99.90;;;12.41;100.00;101745.69;4153840;28;20029;-74
2021/09/20 04:19:19;;;;;;;7.25;1.50;;;12.70;99.90;;;12.54;100.00;101740.94;4152568;28;20057;-74
2021/09/20 04:21:20;;;;;;;9.13;1.90;;;12.70;99.90;;;12.62;100.00;101748.97;4152329;28;20485;-75
2021/09/20 04:23:24;;;;;;;9.27;1.40;;;12.70;99.90;;;12.50;100.00;101739.53;4153510;28;20041;-74
2021/09/20 04:25:25;;;;;;;6.70;2.08;;;12.70;99.90;;;12.49;100.00;101743.16;4152483;28;20038;-74
2021/09/20 04:27:27;;;;;;;7.28;1.60;;;12.70;99.90;;;12.50;100.00;101747.47;4152492;28;20033;-74
2021/09/20 04:29:28;;;;;;;9.40;1.73;;;12.70;99.90;;;12.44;100.00;101743.59;4152199;28;20032;-74
2021/09/20 04:31:29;;;;;;;8.13;2.28;;;12.70;99.90;;;12.59;100.00;101741.31;4153691;28;20026;-74
2021/09/20 04:33:30;;;;;;;9.65;1.58;;;12.70;99.90;;;12.62;100.00;101743.69;4152351;28;20026;-74
2021/09/20 04:35:31;;;;;;;6.07;1.67;;;12.70;99.90;;;12.66;100.00;101745.06;4153449;28;20512;-74
2021/09/20 04:37:32;;;;;;;8.68;1.45;;;12.80;99.90;;;12.75;100.00;101750.31;4153339;28;20117;-74
2021/09/20 04:39:33;;;;;;;9.48;2.13;;;12.80;99.90;;;12.72;100.00;101742.66;4153205;28;20064;-75
2021/09/20 04:41:34;;;;;;;6.40;1.98;;;12.80;99.90;;;12.69;100.00;101758.81;4160600;28;20151;-74
2021/09/20 04:43:35;;;;;;;7.50;1.40;;;12.80;99.90;;;12.60;100.00;101748.28;4156957;28;20037;-75
2021/09/20 04:45:37;;;;;;;7.50;2.33;;;12.80;99.90;;;12.67;100.00;101744.06;4153154;28;20034;-75
2021/09/20 04:47:38;;;;;;;4.95;1.60;;;12.80;99.90;;;12.61;100.00;101745.50;4151692;28;20026;-74
2021/09/20 04:49:40;;;;;;;8.23;1.65;;;12.80;99.90;;;12.45;100.00;101757.66;4151793;28;20041;-74
2021/09/20 04:51:41;;;;;;;8.35;2.05;;;12.80;99.90;;;12.41;100.00;101756.28;4152165;28;20030;-74
2021/09/20 04:53:42;;;;;;;4.97;1.85;;;12.70;99.90;;;12.51;100.00;101749.16;4151659;28;20226;-74
2021/09/20 04:55:45;;;;;;;8.75;1.60;;;12.70;99.90;;;12.77;100.00;101755.47;4153141;28;20501;-75
2021/09/20 04:57:46;;;;;;;4.85;1.83;;;12.80;99.90;;;12.79;100.00;101756.16;4151879;28;20026;-75
2021/09/20 04:59:46;;;;;;;7.18;1.55;;;12.90;99.90;;;12.66;100.00;101755.66;4153034;28;20104;-75
2021/09/20 05:01:48;;;;;;;11.65;1.67;;;12.80;99.90;;;12.62;100.00;101747.16;4151726;28;20025;-75
2021/09/20 05:03:48;;;;;;;7.28;1.92;;;12.80;99.90;;;12.73;100.00;101751.44;4153082;28;20156;-75
2021/09/20 05:05:49;;;;;;;6.70;2.05;;;12.80;99.90;;;12.59;100.00;101750.09;4152905;28;20030;-74
2021/09/20 05:07:50;;;;;;;10.18;2.05;;;12.80;99.90;;;12.61;100.00;101757.88;4152911;28;20062;-74
2021/09/20 05:09:52;;;;;;;10.32;2.50;;;12.80;99.90;;;12.66;100.00;101750.38;4151382;28;20393;-74
2021/09/20 05:11:52;;;;;;;7.80;1.38;;;12.80;99.90;;;12.54;100.00;101755.00;4151613;28;20030;-74
2021/09/20 05:13:53;;;;;;;8.25;1.70;;;12.80;99.90;;;12.52;100.00;101746.34;4151720;28;20402;-74
2021/09/20 05:15:54;;;;;;;7.22;1.30;;;12.80;99.90;;;12.61;100.00;101752.59;4151630;28;20026;-74
2021/09/20 05:17:57;;;;;;;8.63;2.47;;;12.80;99.90;;;12.61;100.00;101749.94;4152632;28;20026;-75
2021/09/20 05:19:57;;;;;;;9.75;2.00;;;12.80;99.90;;;12.66;100.00;101758.31;4151641;28;20038;-75
2021/09/20 05:21:58;;;;;;;5.78;1.70;;;12.80;99.90;;;12.54;100.00;101757.66;4152713;28;20040;-75
2021/09/20 05:23:59;;;;;;;8.18;1.63;;;12.80;99.90;;;12.50;100.00;101747.47;4151332;28;20109;-74
2021/09/20 05:26:00;;;;;;;7.32;1.52;;;12.80;99.90;;;12.63;100.00;101761.25;4151324;28;20064;-74
2021/09/20 05:28:02;;;;;;;12.05;1.63;;;12.80;99.90;;;12.57;100.00;101761.81;4151477;28;20029;-74
2021/09/20 05:30:05;;;;;;;7.47;1.80;;;12.80;99.90;;;12.58;100.00;101766.13;4151477;28;20552;-74
2021/09/20 05:32:07;;;;;;;7.93;2.53;;;12.80;99.90;;;12.53;100.00;101761.28;4151478;28;20104;-74
2021/09/20 05:34:07;;;;;;;5.80;1.60;;;12.70;99.90;;;12.66;100.00;101776.84;4152470;28;20275;-74
2021/09/20 05:36:08;;;;;;;22.13;3.30;;;12.70;99.90;;;12.61;100.00;101768.47;4152575;28;20053;-74
2021/09/20 05:38:12;;;;;;;11.52;1.85;;;12.80;99.90;;;12.53;100.00;101769.22;4134777;28;20085;-74
2021/09/20 05:40:14;;;;;;;9.57;1.70;;;12.70;99.90;;;12.54;100.00;101773.53;4151381;28;20042;-74
2021/09/20 05:42:16;;;;;;;13.65;2.83;;;12.70;99.90;;;12.46;100.00;101773.41;4164378;28;20671;-74
2021/09/20 05:44:17;;;;;;;9.18;2.83;;;12.80;99.90;;;12.45;100.00;101770.91;4152533;28;20033;-74
2021/09/20 05:46:18;;;;;;;5.78;1.60;;;12.70;99.90;;;12.37;100.00;101768.13;4152250;28;20498;-75
2021/09/20 05:48:20;;;;;;;10.80;2.00;;;12.70;99.90;;;12.41;100.00;101782.75;4152541;28;20065;-75
2021/09/20 05:50:22;;;;;;;17.33;2.92;;;12.70;99.90;;;12.36;100.00;101775.25;4151081;28;20421;-75
2021/09/20 05:52:25;;;;;;;10.02;1.85;;;12.60;99.90;;;12.34;100.00;101776.34;4152397;28;20384;-75
2021/09/20 05:54:26;;;;;;;9.45;1.77;;;12.60;99.90;;;12.29;100.00;101771.50;4150836;28;20026;-74
2021/09/20 05:56:27;;;;;;;7.72;1.95;;;12.60;99.90;;;12.37;100.00;101778.69;4152142;28;20105;-74
2021/09/20 05:58:27;;;;;;;10.85;2.42;;;12.60;99.90;;;12.29;100.00;101774.13;4151918;28;20605;-74
2021/09/20 06:00:29;;;;;;;8.75;1.83;;;12.60;99.90;;;12.33;100.00;101779.97;4152185;28;20026;-75
2021/09/20 06:02:30;;;;;;;7.88;1.77;;;12.60;99.90;;;12.33;100.00;101778.19;4151032;28;20033;-74
2021/09/20 06:04:30;;;;;;;8.65;2.17;;;12.60;99.90;;;12.29;100.00;101775.94;4150908;28;20025;-75
2021/09/20 06:06:31;;;;;;;10.70;1.75;;;12.60;99.90;;;12.24;100.00;101770.25;4134463;28;20026;-75
2021/09/20 06:08:32;;;;;;;9.27;2.42;;;12.60;99.90;;;12.29;100.00;101776.78;4151984;28;20065;-74
2021/09/20 06:10:35;;;;;;;8.55;2.22;;;12.70;99.90;;;12.29;100.00;101765.34;4152122;28;20026;-74
2021/09/20 06:12:36;;;;;;;9.00;2.22;;;12.60;99.90;;;12.25;100.00;101772.72;4150861;28;20022;-74
2021/09/20 06:14:37;;;;;;;11.30;2.30;;;12.60;99.90;;;12.30;100.00;101769.69;4150787;28;20026;-74
2021/09/20 06:16:38;;;;;;;7.53;2.30;;;12.60;99.90;;;12.36;100.00;101780.53;4150967;28;20061;-74
2021/09/20 06:18:39;;;;;;;10.68;2.40;;;12.60;99.90;;;12.30;100.00;101780.25;4150880;28;20716;-74
2021/09/20 06:20:40;;;;;;;8.18;1.92;;;12.60;99.90;;;12.32;100.00;101779.13;4151944;28;20034;-74
2021/09/20 06:22:41;;;;;;;7.53;1.75;;;12.70;99.90;;;12.34;100.00;101785.13;4150647;28;20038;-74
2021/09/20 06:24:43;;;;;;;11.40;2.17;;;12.70;99.90;;;12.30;100.00;101775.81;4150606;28;20053;-74
2021/09/20 06:26:44;;;;;;;7.10;1.60;;;12.70;99.90;;;12.35;100.00;101783.31;4151934;28;20033;-74
2021/09/20 06:28:45;;;;;;;8.45;2.08;;;12.70;99.90;;;12.31;100.00;101782.75;4150760;28;20022;-74
2021/09/20 06:30:46;;;;;;;10.00;2.88;;;12.70;99.90;;;12.41;100.00;101796.81;4150736;28;20038;-74
2021/09/20 06:32:47;;;;;;;6.07;1.60;;;12.70;99.90;;;12.41;100.00;101788.03;4150809;28;20026;-74
2021/09/20 06:34:48;;;;;;;8.32;2.75;;;12.70;99.90;;;12.45;100.00;101784.13;4150796;28;20383;-74
2021/09/20 06:36:49;;;;;;;8.27;1.92;;;12.80;99.90;;;12.42;100.00;101789.72;4151963;28;20026;-74
2021/09/20 06:38:50;;;;;;;6.32;1.85;;;12.80;99.90;;;12.43;100.00;101789.56;4151709;28;20034;-73
2021/09/20 06:40:52;;;;;;;5.38;1.90;;;12.90;99.90;;;12.41;100.00;101790.69;4153197;28;20073;-74
2021/09/20 06:42:53;;;;;;;8.25;2.00;;;12.90;99.90;;;12.46;100.00;101796.38;4161439;28;20037;-74
2021/09/20 06:44:54;;;;;;;10.55;1.88;;;12.90;99.90;;;12.49;100.00;101796.09;4151994;28;20031;-75
2021/09/20 06:46:56;;;;;;;10.43;2.08;;;12.90;99.90;;;12.55;100.00;101809.59;4151790;28;20042;-74
2021/09/20 06:49:00;;;;;;;6.30;2.33;;;12.90;99.90;;;12.60;100.00;101809.19;4151629;28;20033;-74
2021/09/20 06:51:00;;;;;;;4.80;1.90;;;13.00;99.90;;;12.52;100.00;101806.38;4150595;28;20033;-75
2021/09/20 06:53:02;;;;;;;14.73;2.70;;;13.00;99.90;;;12.63;100.00;101801.75;4151424;28;20030;-75
2021/09/20 06:55:05;;;;;;;6.38;1.95;;;13.00;99.90;;;12.78;100.00;101804.81;4151583;28;20034;-75
2021/09/20 06:57:06;;;;;;;8.30;1.70;;;13.10;99.90;;;12.74;100.00;101803.41;4151651;28;20506;-74
2021/09/20 06:59:07;;;;;;;9.80;1.75;;;13.10;99.90;;;12.83;100.00;101810.50;4149799;28;20026;-74
2021/09/20 07:01:08;;;;;;;10.32;2.53;;;13.20;99.90;;;12.85;100.00;101818.28;4151127;28;20022;-74
2021/09/20 07:03:12;;;;;;;5.93;1.67;;;13.20;99.90;;;12.78;100.00;101804.81;4151539;28;20025;-74
2021/09/20 07:05:13;;;;;;;6.38;2.35;;;13.30;99.90;;;12.80;100.00;101805.50;4151561;28;20037;-74
2021/09/20 07:07:17;;;;;;;8.40;2.53;;;13.30;99.90;;;12.73;100.00;101814.97;4134157;28;20452;-74
2021/09/20 07:09:18;;;;;;;9.30;2.10;;;13.30;99.90;;;12.68;100.00;101811.94;4151376;28;20029;-74
2021/09/20 07:11:19;;;;;;;7.40;2.38;;;13.30;99.90;;;12.83;100.00;101804.34;4134830;28;20034;-74
2021/09/20 07:13:20;;;;;;;12.07;2.35;;;13.30;99.90;;;12.78;100.00;101812.75;4154689;28;20033;-74
2021/09/20 07:15:21;;;;;;;8.00;1.90;;;13.30;99.90;;;12.78;100.00;101804.81;4154731;28;20084;-74
2021/09/20 07:17:21;;;;;;;8.13;2.08;;;13.30;99.90;;;12.72;100.00;101813.31;4154720;28;20034;-74
2021/09/20 07:19:23;;;;;;;6.28;2.60;;;13.40;99.90;;;12.70;100.00;101815.25;4153574;28;20497;-74
2021/09/20 07:21:24;;;;;;;7.25;2.10;;;13.30;99.90;;;12.62;100.00;101812.50;4153390;28;20026;-74
2021/09/20 07:23:25;;;;;;;6.95;2.42;;;13.20;99.90;;;12.57;100.00;101807.63;4153259;28;20034;-74
2021/09/20 07:25:26;;;;;;;9.60;2.38;;;13.30;99.90;;;12.61;100.00;101816.13;4153413;28;20048;-74
2021/09/20 07:27:27;;;;;;;8.98;2.30;;;13.20;99.90;;;12.75;100.00;101823.63;4153283;28;20022;-74
2021/09/20 07:29:28;;;;;;;9.60;3.40;;;13.30;99.90;;;12.72;100.00;101808.03;4153118;28;20029;-74
2021/09/20 07:31:29;;;;;;;6.05;2.10;;;13.30;99.90;;;12.86;100.00;101812.84;4154533;28;20084;-74
2021/09/20 07:33:30;;;;;;;4.43;2.20;;;13.30;99.90;;;12.88;100.00;101824.13;4154514;28;20026;-74
2021/09/20 07:35:31;;;;;;;9.20;2.97;;;13.40;99.90;;;12.89;100.00;101817.03;4136895;28;20042;-74
2021/09/20 07:37:32;;;;;;;10.77;2.13;;;13.40;99.90;;;12.95;100.00;101817.28;4151150;28;20041;-74
2021/09/20 07:39:33;;;;;;;13.82;2.67;;;13.50;99.90;;;12.81;100.00;101816.91;4154115;28;20075;-74
2021/09/20 07:41:34;;;;;;;8.88;2.53;;;13.50;99.90;;;12.87;100.00;101822.47;4162556;28;20036;-74
2021/09/20 07:43:36;;;;;;;11.43;2.63;;;13.50;99.90;;;12.96;100.00;101824.22;4157662;28;20030;-74
2021/09/20 07:45:38;;;;;;;9.52;2.80;;;13.50;99.90;;;13.05;100.00;101831.31;4154115;28;20041;-75
2021/09/20 07:47:39;;;;;;;9.93;2.05;;;13.50;99.90;;;12.94;100.00;101823.56;4154164;28;20026;-74
2021/09/20 07:49:40;;;;;;;7.85;2.58;;;13.60;99.90;;;12.88;100.00;101839.19;4136614;28;20173;-74
2021/09/20 07:51:41;;;;;;;5.60;2.83;;;13.60;99.90;;;12.78;100.00;101834.75;4152843;28;20541;-73
2021/09/20 07:53:43;;;;;;;11.63;3.25;;;13.60;99.90;;;12.84;100.00;101833.34;4152497;28;20553;-74
2021/09/20 07:55:44;;;;;;;6.07;2.80;;;13.60;99.90;;;12.88;100.00;101829.44;4154118;28;20029;-74
2021/09/20 07:57:46;;;;;;;11.45;2.15;;;13.60;99.90;;;13.07;100.00;101839.97;4154044;28;20030;-74
2021/09/20 07:59:47;;;;;;;11.23;2.45;;;13.60;99.90;;;13.18;100.00;101838.97;4153993;28;20030;-74
2021/09/20 08:01:47;;;;;;;6.65;2.40;;;13.70;99.90;;;13.18;100.00;101842.44;4153840;28;20072;-74
2021/09/20 08:03:48;;;;;;;12.68;3.40;;;13.80;99.90;;;12.99;100.00;101839.03;4152789;28;20073;-74
2021/09/20 08:05:49;;;;;;;9.57;2.50;;;13.70;99.90;;;12.90;100.00;101843.38;4152655;28;20033;-74
2021/09/20 08:07:50;;;;;;;9.15;2.70;;;13.70;99.90;;;12.96;100.00;101842.78;4153665;28;20077;-74
2021/09/20 08:09:51;;;;;;;8.30;2.33;;;13.60;99.90;;;13.11;100.00;101851.94;4152363;28;20085;-74
2021/09/20 08:11:52;;;;;;;11.90;3.20;;;13.70;99.90;;;13.21;100.00;101847.47;4153867;28;20033;-74
2021/09/20 08:13:53;;;;;;;5.93;2.75;;;13.80;99.90;;;13.16;100.00;101844.41;4152574;28;20033;-74
2021/09/20 08:15:54;;;;;;;11.65;3.08;;;13.80;99.90;;;13.23;100.00;101842.84;4153634;28;20030;-74
2021/09/20 08:17:55;;;;;;;8.77;2.60;;;13.90;99.90;;;13.05;100.00;101841.91;4153451;28;20489;-74